Time;durP1;ratioP1;P1;durP2;ratioP2;P2;SDS_P1;SDS_P2;PMS_P1;PMS_P2;Temp;Humidity;BMP_temperature;BMP_pressure;BME280_temperature;BME280_humidity;BME280_pressure;Samples;Min_cycle;Max_cycle;Signal;HPM_P1;HPM_P2
2021/12/09 00:00:17;;;;;;;25.05;14.60;;;2.30;98.30;;;;;;5040141;28;20357;-77
2021/12/09 00:02:43;;;;;;;22.58;12.65;;;2.30;98.30;;;;;;5040052;28;20025;-78
2021/12/09 00:05:11;;;;;;;21.17;11.32;;;2.30;98.30;;;;;;5040122;28;20025;-77
2021/12/09 00:07:37;;;;;;;23.02;11.88;;;2.30;98.30;;;;;;5039808;28;20029;-79
2021/12/09 00:10:07;;;;;;;20.73;12.30;;;2.30;98.40;;;;;;5040628;28;20082;-77
2021/12/09 00:12:33;;;;;;;22.00;12.48;;;2.30;98.30;;;;;;5041230;28;20231;-75
2021/12/09 00:14:58;;;;;;;24.73;13.68;;;2.30;98.40;;;;;;5041833;28;20164;-77
2021/12/09 00:17:25;;;;;;;21.70;11.98;;;2.40;98.60;;;;;;5042403;28;20613;-77
2021/12/09 00:19:51;;;;;;;28.08;12.52;;;2.20;98.50;;;;;;5042514;28;20032;-76
2021/12/09 00:22:18;;;;;;;18.00;10.35;;;2.30;98.40;;;;;;5043716;28;20037;-76
2021/12/09 00:24:44;;;;;;;18.25;10.75;;;2.30;98.60;;;;;;5048883;28;20035;-77
2021/12/09 00:27:10;;;;;;;21.38;12.35;;;2.30;98.60;;;;;;5048008;28;20077;-77
2021/12/09 00:29:35;;;;;;;26.58;11.90;;;3.00;98.70;;;;;;5049785;28;20055;-77
2021/12/09 00:32:01;;;;;;;20.02;10.68;;;2.60;99.10;;;;;;5048703;28;20092;-76
2021/12/09 00:34:31;;;;;;;21.63;10.73;;;3.90;99.50;;;;;;5041416;28;20198;-78
2021/12/09 00:37:15;;;;;;;24.75;11.23;;;2.30;98.90;;;;;;5039863;28;20068;-77
2021/12/09 00:39:45;;;;;;;23.05;11.50;;;2.40;99.50;;;;;;5043279;28;20430;-76
2021/12/09 00:42:11;;;;;;;22.40;11.00;;;2.40;99.40;;;;;;5026368;28;20021;-76
2021/12/09 00:44:37;;;;;;;45.25;21.05;;;2.40;99.30;;;;;;5043807;28;20245;-77
2021/12/09 00:47:05;;;;;;;106.30;43.53;;;2.40;99.30;;;;;;5024811;28;20021;-77
2021/12/09 00:49:31;;;;;;;64.80;25.67;;;2.50;99.20;;;;;;5043475;28;20021;-78
2021/12/09 00:52:06;;;;;;;25.45;13.10;;;2.50;99.60;;;;;;5043364;28;20426;-77
2021/12/09 00:54:32;;;;;;;16.83;9.00;;;2.50;99.80;;;;;;5045354;28;20017;-78
2021/12/09 00:56:57;;;;;;;78.80;29.48;;;2.60;99.90;;;;;;5044903;28;20032;-79
2021/12/09 00:59:23;;;;;;;997.72;390.40;;;2.70;99.80;;;;;;5047895;28;20280;-78
2021/12/09 01:01:49;;;;;;;111.88;42.63;;;2.70;99.70;;;;;;5048860;28;20033;-79
2021/12/09 01:04:15;;;;;;;65.88;23.25;;;2.90;99.70;;;;;;5047359;28;20174;-78
2021/12/09 01:06:40;;;;;;;111.90;38.88;;;2.90;99.40;;;;;;5043071;28;20025;-76
2021/12/09 01:09:06;;;;;;;670.22;220.93;;;2.90;99.40;;;;;;5042406;28;20013;-77
2021/12/09 01:11:32;;;;;;;86.03;32.50;;;2.90;99.50;;;;;;5043208;28;20210;-76
2021/12/09 01:13:58;;;;;;;235.65;70.80;;;2.90;99.50;;;;;;5043813;28;20027;-77
2021/12/09 01:16:24;;;;;;;49.03;20.85;;;3.00;99.60;;;;;;5044519;28;20025;-77
2021/12/09 01:18:50;;;;;;;169.80;52.63;;;2.90;99.80;;;;;;5041897;28;20661;-77
2021/12/09 01:21:16;;;;;;;24.10;12.20;;;3.10;99.30;;;;;;5043786;28;20318;-76
2021/12/09 01:23:43;;;;;;;93.05;31.92;;;3.00;99.30;;;;;;5043574;28;20028;-76
2021/12/09 01:26:10;;;;;;;46.13;19.25;;;2.90;99.50;;;;;;5044244;28;20028;-76
2021/12/09 01:29:01;;;;;;;240.32;76.43;;;2.90;99.70;;;;;;5044506;28;20025;-77
2021/12/09 01:31:32;;;;;;;102.60;37.35;;;3.00;99.50;;;;;;5043847;28;20211;-76
2021/12/09 01:34:01;;;;;;;108.35;36.60;;;3.00;99.60;;;;;;5044005;28;20060;-75
2021/12/09 01:36:28;;;;;;;383.23;107.03;;;3.00;99.90;;;;;;5043715;28;20021;-78
2021/12/09 01:38:54;;;;;;;107.20;34.47;;;3.00;99.90;;;;;;5025193;28;20214;-76
2021/12/09 01:41:20;;;;;;;32.22;13.80;;;3.00;99.90;;;;;;5042936;28;20474;-79
2021/12/09 01:43:46;;;;;;;17.13;8.73;;;3.00;99.90;;;;;;5042083;28;20052;-76
2021/12/09 01:46:15;;;;;;;10.57;6.10;;;3.00;99.90;;;;;;5042165;28;20192;-77
2021/12/09 01:48:43;;;;;;;122.82;32.97;;;3.00;99.80;;;;;;5042416;28;20044;-77
2021/12/09 01:51:10;;;;;;;87.93;26.33;;;3.00;99.90;;;;;;5043370;28;20138;-76
2021/12/09 01:53:36;;;;;;;24.95;10.13;;;3.00;99.90;;;;;;5042710;28;20515;-77
2021/12/09 01:56:05;;;;;;;85.70;23.38;;;3.10;99.90;;;;;;5042487;28;20087;-77
2021/12/09 01:58:32;;;;;;;395.15;109.85;;;3.40;99.90;;;;;;5041544;28;20033;-76
2021/12/09 02:00:57;;;;;;;226.73;64.00;;;3.30;99.90;;;;;;5041686;28;20057;-77
2021/12/09 02:03:24;;;;;;;143.00;41.05;;;3.40;99.90;;;;;;5041502;28;20483;-77
2021/12/09 02:05:49;;;;;;;96.03;33.13;;;2.20;99.90;;;;;;5042137;28;20079;-78
2021/12/09 02:08:16;;;;;;;77.20;27.80;;;3.50;99.90;;;;;;5023681;28;20294;-78
2021/12/09 02:10:45;;;;;;;106.45;40.08;;;3.60;99.80;;;;;;5023140;28;20036;-76
2021/12/09 02:13:12;;;;;;;206.13;70.80;;;3.70;99.80;;;;;;5041398;28;20024;-78
2021/12/09 02:15:39;;;;;;;55.15;20.08;;;3.70;99.70;;;;;;5041154;28;20032;-77
2021/12/09 02:18:07;;;;;;;62.67;21.35;;;3.80;99.80;;;;;;5022216;28;20021;-77
2021/12/09 02:20:35;;;;;;;162.15;51.22;;;3.90;99.60;;;;;;5040583;28;20043;-78
2021/12/09 02:23:06;;;;;;;98.20;32.50;;;4.00;99.40;;;;;;5041068;28;20083;-77
2021/12/09 02:25:32;;;;;;;172.05;52.67;;;4.00;99.40;;;;;;5022529;28;20048;-77
2021/12/09 02:27:59;;;;;;;133.52;43.17;;;4.10;99.10;;;;;;5042719;28;20021;-78
2021/12/09 02:30:25;;;;;;;165.65;51.33;;;4.10;99.00;;;;;;5045903;28;20078;-78
2021/12/09 02:32:51;;;;;;;6.28;3.38;;;4.30;99.00;;;;;;5040634;28;20021;-78
2021/12/09 02:35:17;;;;;;;127.68;48.00;;;4.30;98.80;;;;;;5040175;28;20135;-77
2021/12/09 02:37:44;;;;;;;15.25;6.50;;;4.50;98.40;;;;;;5040037;28;20486;-77
2021/12/09 02:40:11;;;;;;;34.30;13.40;;;4.50;98.30;;;;;;5042128;28;20041;-77
2021/12/09 02:42:37;;;;;;;32.60;14.27;;;4.40;98.30;;;;;;5041247;28;20121;-78
2021/12/09 02:45:07;;;;;;;12.20;5.95;;;4.40;98.40;;;;;;5042538;28;20135;-77
2021/12/09 02:47:34;;;;;;;11.98;5.80;;;4.40;98.30;;;;;;5041747;28;20461;-79
2021/12/09 02:50:00;;;;;;;12.20;6.55;;;4.50;98.40;;;;;;5040387;28;20060;-80
2021/12/09 02:52:26;;;;;;;9.82;5.07;;;4.80;98.60;;;;;;5043018;28;20043;-77
2021/12/09 02:54:52;;;;;;;7.10;3.22;;;4.50;99.00;;;;;;5043386;28;20033;-77
2021/12/09 02:57:18;;;;;;;4.15;1.70;;;4.50;98.60;;;;;;5042167;28;20078;-77
2021/12/09 02:59:44;;;;;;;2.65;1.48;;;4.60;98.50;;;;;;5042339;28;20040;-77
2021/12/09 03:02:11;;;;;;;2.40;1.80;;;4.60;98.30;;;;;;5041057;28;20033;-78
2021/12/09 03:04:54;;;;;;;6.43;3.55;;;4.80;98.10;;;;;;5043895;28;20029;-79
2021/12/09 03:07:28;;;;;;;5.38;2.95;;;4.80;97.90;;;;;;5044191;28;20031;-78
2021/12/09 03:10:00;;;;;;;5.55;2.58;;;4.80;98.00;;;;;;5044232;28;20112;-78
2021/12/09 03:12:32;;;;;;;8.63;4.50;;;4.80;97.80;;;;;;5044502;28;20017;-78
2021/12/09 03:14:59;;;;;;;5.78;3.03;;;4.80;97.90;;;;;;5042411;28;20021;-77
2021/12/09 03:17:25;;;;;;;3.67;1.48;;;4.90;97.60;;;;;;5042638;28;20025;-77
2021/12/09 03:19:51;;;;;;;1.55;1.05;;;6.50;98.10;;;;;;5041019;28;20025;-77
2021/12/09 03:22:19;;;;;;;3.00;1.92;;;5.00;97.70;;;;;;5040749;28;20041;-77
2021/12/09 03:24:45;;;;;;;1.55;1.40;;;5.10;97.30;;;;;;5042244;28;20261;-78
2021/12/09 03:27:11;;;;;;;6.03;3.25;;;5.10;97.40;;;;;;5023423;28;20408;-78
2021/12/09 03:29:40;;;;;;;4.82;2.20;;;5.10;97.30;;;;;;5041764;28;20078;-78
2021/12/09 03:32:13;;;;;;;1.45;1.30;;;5.10;97.30;;;;;;5042368;28;20107;-77
2021/12/09 03:34:41;;;;;;;1.40;1.00;;;5.00;97.60;;;;;;5042212;28;20021;-78
2021/12/09 03:37:12;;;;;;;1.30;1.08;;;5.20;97.40;;;;;;5041339;28;20024;-77
2021/12/09 03:39:40;;;;;;;2.45;1.10;;;5.20;97.20;;;;;;5041637;28;20247;-77
2021/12/09 03:42:08;;;;;;;1.85;1.05;;;5.30;97.10;;;;;;5043001;28;20229;-77
2021/12/09 03:44:36;;;;;;;1.23;0.93;;;5.30;97.10;;;;;;5042465;28;20013;-77
2021/12/09 03:47:05;;;;;;;1.42;1.33;;;5.30;97.30;;;;;;5042239;28;20029;-77
2021/12/09 03:49:30;;;;;;;2.28;0.90;;;5.30;97.40;;;;;;5043529;28;20036;-78
2021/12/09 03:51:57;;;;;;;2.17;1.50;;;5.40;97.20;;;;;;5045681;28;20017;-80
2021/12/09 03:54:24;;;;;;;2.03;1.10;;;5.50;97.20;;;;;;5046631;28;20029;-78
2021/12/09 03:56:52;;;;;;;1.73;1.10;;;5.50;96.90;;;;;;5046940;28;20051;-77
2021/12/09 03:59:18;;;;;;;1.55;1.00;;;5.50;96.90;;;;;;5048255;28;20041;-78
2021/12/09 04:01:45;;;;;;;1.00;0.90;;;5.50;96.70;;;;;;5047472;28;20029;-78
2021/12/09 04:04:11;;;;;;;1.20;1.10;;;5.40;96.80;;;;;;5046564;28;20368;-78
2021/12/09 04:06:37;;;;;;;1.42;1.30;;;5.40;97.10;;;;;;5047721;28;20028;-78
2021/12/09 04:09:06;;;;;;;2.25;1.77;;;5.40;97.20;;;;;;5034649;28;20392;-78
2021/12/09 04:11:32;;;;;;;1.80;1.20;;;5.30;97.20;;;;;;5052342;28;20021;-78
2021/12/09 04:13:58;;;;;;;2.55;0.88;;;5.30;97.30;;;;;;5056704;28;20017;-78
2021/12/09 04:16:24;;;;;;;1.40;0.90;;;5.30;97.50;;;;;;5037790;28;20040;-77
2021/12/09 04:18:49;;;;;;;0.65;0.65;;;5.20;97.50;;;;;;5051998;28;20036;-78
2021/12/09 04:21:15;;;;;;;1.75;1.10;;;5.20;97.60;;;;;;5046317;28;20079;-77
2021/12/09 04:23:41;;;;;;;1.27;1.17;;;5.20;97.70;;;;;;5047389;28;20031;-77
2021/12/09 04:26:07;;;;;;;2.38;1.27;;;5.30;97.50;;;;;;5046599;28;20378;-77
2021/12/09 04:28:33;;;;;;;3.53;2.20;;;5.40;97.50;;;;;;5046470;28;20683;-77
2021/12/09 04:30:59;;;;;;;2.55;1.00;;;5.50;97.40;;;;;;5047423;28;20110;-78
2021/12/09 04:33:26;;;;;;;1.35;0.98;;;5.50;97.40;;;;;;5048184;28;20044;-78
2021/12/09 04:35:51;;;;;;;3.42;1.15;;;5.50;97.40;;;;;;5047526;28;20287;-78
2021/12/09 04:38:18;;;;;;;1.80;1.20;;;5.50;97.50;;;;;;5046268;28;20345;-76
2021/12/09 04:40:44;;;;;;;2.20;1.20;;;5.40;97.40;;;;;;5045600;28;20052;-78
2021/12/09 04:43:09;;;;;;;1.30;1.20;;;5.40;97.50;;;;;;5045079;28;20355;-77
2021/12/09 04:45:38;;;;;;;3.00;1.70;;;5.40;97.50;;;;;;5042949;28;20495;-77
2021/12/09 04:48:04;;;;;;;3.70;1.58;;;5.40;97.60;;;;;;5043934;28;20013;-78
2021/12/09 04:50:30;;;;;;;2.05;1.38;;;5.30;97.60;;;;;;5043926;28;20031;-78
2021/12/09 04:52:56;;;;;;;1.83;1.02;;;5.30;97.70;;;;;;5044183;28;20281;-78
2021/12/09 04:55:22;;;;;;;1.55;1.00;;;5.30;97.70;;;;;;5043804;28;20327;-79
2021/12/09 04:57:49;;;;;;;2.28;1.33;;;5.30;97.80;;;;;;5044573;28;20021;-79
2021/12/09 05:00:18;;;;;;;2.97;1.60;;;5.40;97.70;;;;;;5044104;28;20091;-77
2021/12/09 05:05:19;;;;;;;2.08;1.08;;;5.40;97.70;;;;;;5044360;28;20063;-78
2021/12/09 05:07:45;;;;;;;1.20;1.10;;;5.50;97.70;;;;;;5044055;28;20049;-78
2021/12/09 05:10:11;;;;;;;1.98;1.35;;;5.50;97.80;;;;;;5044936;28;20016;-78
2021/12/09 05:12:37;;;;;;;3.90;1.30;;;5.60;97.70;;;;;;5044408;28;20029;-79
2021/12/09 05:15:03;;;;;;;6.18;2.90;;;5.50;97.60;;;;;;5044892;28;20071;-77
2021/12/09 05:17:28;;;;;;;5.90;2.70;;;5.50;97.50;;;;;;5045534;28;20039;-78
2021/12/09 05:19:54;;;;;;;5.10;2.80;;;5.40;97.80;;;;;;5046073;28;20214;-78
2021/12/09 05:22:21;;;;;;;7.05;3.63;;;5.40;98.00;;;;;;5045893;28;20060;-78
2021/12/09 05:24:49;;;;;;;6.07;4.00;;;5.40;98.00;;;;;;5024398;28;20052;-78
2021/12/09 05:27:16;;;;;;;6.65;3.22;;;5.40;98.00;;;;;;5023927;28;20048;-77
2021/12/09 05:29:43;;;;;;;5.88;2.38;;;5.50;98.10;;;;;;5024449;28;20021;-78
2021/12/09 05:32:12;;;;;;;6.35;1.92;;;5.40;98.00;;;;;;5042573;28;20032;-78
2021/12/09 05:34:45;;;;;;;4.20;2.28;;;5.50;98.10;;;;;;5024390;28;20029;-79
2021/12/09 05:37:22;;;;;;;3.08;1.70;;;5.50;98.20;;;;;;5024284;28;20372;-78
2021/12/09 05:39:48;;;;;;;3.28;2.15;;;5.50;98.10;;;;;;5023262;28;20080;-78
2021/12/09 05:42:16;;;;;;;5.13;2.30;;;5.40;98.40;;;;;;5043520;28;20282;-78
2021/12/09 05:44:42;;;;;;;35.55;15.85;;;5.40;98.40;;;;;;5043160;28;20395;-78
2021/12/09 05:47:09;;;;;;;8.30;4.18;;;5.40;98.30;;;;;;5042475;28;20111;-77
2021/12/09 05:49:37;;;;;;;15.98;7.30;;;5.40;98.50;;;;;;5044836;28;20055;-78
2021/12/09 05:52:04;;;;;;;12.80;6.93;;;5.40;98.50;;;;;;5042535;28;20510;-79
2021/12/09 05:54:31;;;;;;;38.40;20.50;;;5.40;98.60;;;;;;5042514;28;20486;-78
2021/12/09 05:56:58;;;;;;;19.23;14.38;;;5.50;98.80;;;;;;5044454;28;20031;-78
2021/12/09 05:59:24;;;;;;;7.15;4.47;;;5.60;98.80;;;;;;5042019;28;20499;-76
2021/12/09 06:01:49;;;;;;;5.43;3.22;;;5.60;98.60;;;;;;5041564;28;20264;-79
2021/12/09 06:04:15;;;;;;;16.27;9.27;;;5.60;98.40;;;;;;5042086;28;20048;-79
2021/12/09 06:06:41;;;;;;;14.48;8.38;;;5.60;98.40;;;;;;5042880;28;20029;-79
2021/12/09 06:09:10;;;;;;;8.20;4.20;;;5.60;98.50;;;;;;5045521;28;20048;-78
2021/12/09 06:11:37;;;;;;;11.77;6.03;;;5.70;98.50;;;;;;5046456;28;20013;-78
2021/12/09 06:14:05;;;;;;;10.82;6.38;;;5.70;98.30;;;;;;5043805;28;20021;-79
2021/12/09 06:16:31;;;;;;;12.70;7.72;;;5.80;98.30;;;;;;5026561;28;20017;-81
2021/12/09 06:18:57;;;;;;;10.70;6.63;;;5.80;98.10;;;;;;5043380;28;20036;-79
2021/12/09 06:21:27;;;;;;;11.07;5.72;;;5.80;98.10;;;;;;5044871;28;20487;-80
2021/12/09 06:23:56;;;;;;;13.23;6.72;;;5.80;98.30;;;;;;5047921;28;20014;-79
2021/12/09 06:26:22;;;;;;;10.50;5.57;;;5.90;98.10;;;;;;5050280;28;20116;-77
2021/12/09 06:28:49;;;;;;;16.08;8.13;;;6.00;98.00;;;;;;5044918;28;20275;-79
2021/12/09 06:31:15;;;;;;;14.63;7.35;;;5.80;98.10;;;;;;5047292;28;20087;-80
2021/12/09 06:33:40;;;;;;;9.93;4.97;;;5.80;98.30;;;;;;5045271;28;20053;-78
2021/12/09 06:36:06;;;;;;;9.75;5.00;;;6.50;98.40;;;;;;5052306;28;20029;-79
2021/12/09 06:38:33;;;;;;;10.82;5.93;;;6.00;98.10;;;;;;5049371;28;20103;-79
2021/12/09 06:40:59;;;;;;;11.75;5.70;;;6.10;97.80;;;;;;5053243;28;20044;-79
2021/12/09 06:43:25;;;;;;;12.20;5.55;;;6.20;97.80;;;;;;5050270;28;20040;-79
2021/12/09 06:45:54;;;;;;;13.82;8.23;;;6.20;97.60;;;;;;5050044;28;20025;-79
2021/12/09 06:48:20;;;;;;;16.45;8.93;;;6.20;97.50;;;;;;5046819;28;20083;-79
2021/12/09 06:50:46;;;;;;;19.27;10.20;;;6.30;97.50;;;;;;5051177;28;20025;-78
2021/12/09 06:53:14;;;;;;;8.45;5.22;;;6.30;97.50;;;;;;5050030;28;20033;-79
2021/12/09 06:55:41;;;;;;;9.23;4.75;;;6.70;96.70;;;;;;5052061;28;20021;-80
2021/12/09 06:58:07;;;;;;;8.82;4.95;;;6.90;96.20;;;;;;5052944;28;20020;-80
2021/12/09 07:00:34;;;;;;;12.52;6.82;;;7.20;95.70;;;;;;5053990;28;20067;-80
2021/12/09 07:03:02;;;;;;;13.32;6.47;;;7.60;94.80;;;;;;5054811;28;20025;-81
2021/12/09 07:05:31;;;;;;;15.73;8.48;;;7.60;94.70;;;;;;5053779;28;20025;-80
2021/12/09 07:07:57;;;;;;;25.42;12.18;;;7.70;94.70;;;;;;5053296;28;20356;-80
2021/12/09 07:10:24;;;;;;;28.52;12.90;;;7.70;94.80;;;;;;5036760;28;20037;-80
2021/12/09 07:12:50;;;;;;;26.77;11.15;;;7.70;94.80;;;;;;5057763;28;20260;-81
2021/12/09 07:15:17;;;;;;;22.05;11.35;;;7.60;94.90;;;;;;5056638;28;20045;-80
2021/12/09 07:17:43;;;;;;;25.88;13.70;;;7.60;95.00;;;;;;5056128;28;20025;-81
2021/12/09 07:20:12;;;;;;;21.90;12.00;;;7.60;94.70;;;;;;5053019;28;20020;-80
2021/12/09 07:22:40;;;;;;;28.02;14.35;;;7.70;94.80;;;;;;5047532;28;20224;-80
2021/12/09 07:25:06;;;;;;;32.65;16.55;;;7.70;94.60;;;;;;5046354;28;20113;-80
2021/12/09 07:27:35;;;;;;;32.05;16.52;;;7.70;94.70;;;;;;5045406;28;20028;-81
2021/12/09 07:30:02;;;;;;;40.05;19.98;;;7.80;94.60;;;;;;5047096;28;20154;-81
2021/12/09 07:32:28;;;;;;;39.83;18.60;;;8.00;94.60;;;;;;5044798;28;20028;-80
2021/12/09 07:34:54;;;;;;;38.03;18.50;;;8.20;94.40;;;;;;5027084;28;20025;-80
2021/12/09 07:37:20;;;;;;;34.40;15.52;;;8.30;94.20;;;;;;5043167;28;20025;-80
2021/12/09 07:39:46;;;;;;;22.33;11.35;;;8.60;93.70;;;;;;5045958;28;20052;-80
2021/12/09 07:42:14;;;;;;;27.15;13.93;;;8.80;93.30;;;;;;5045917;28;20025;-81
2021/12/09 07:44:39;;;;;;;23.90;11.73;;;8.90;93.10;;;;;;5046792;28;20418;-81
2021/12/09 07:47:05;;;;;;;17.98;9.18;;;9.10;92.80;;;;;;5046127;28;20100;-80
2021/12/09 07:49:32;;;;;;;30.70;14.30;;;9.20;92.40;;;;;;5046364;28;20090;-82
2021/12/09 07:51:58;;;;;;;10.00;4.78;;;9.40;91.50;;;;;;5045000;28;20483;-79
2021/12/09 07:54:24;;;;;;;23.92;9.68;;;9.60;91.00;;;;;;5043596;28;20017;-80
2021/12/09 07:56:50;;;;;;;25.77;10.38;;;9.70;91.00;;;;;;5044364;28;20759;-81
2021/12/09 07:59:16;;;;;;;15.30;6.57;;;9.90;90.40;;;;;;5040471;28;20337;-81
2021/12/09 08:01:46;;;;;;;3.90;1.40;;;10.00;89.20;;;;;;5023717;28;20064;-80
2021/12/09 08:04:11;;;;;;;3.97;2.33;;;10.40;86.90;;;;;;5046018;28;20021;-80
2021/12/09 08:06:39;;;;;;;5.80;3.60;;;10.40;86.10;;;;;;5023765;28;20036;-81
2021/12/09 08:09:05;;;;;;;3.40;1.88;;;10.50;86.60;;;;;;5028455;28;20045;-79
2021/12/09 08:11:33;;;;;;;6.95;3.05;;;10.50;85.30;;;;;;5052132;28;20671;-81
2021/12/09 08:14:00;;;;;;;178.00;69.90;;;10.60;86.50;;;;;;5046739;28;20029;-80
2021/12/09 08:16:25;;;;;;;32.28;12.40;;;10.60;88.50;;;;;;5028141;28;20036;-76
2021/12/09 08:18:56;;;;;;;4.78;2.00;;;10.40;89.00;;;;;;5042553;28;20013;-78
2021/12/09 08:21:24;;;;;;;67.75;24.02;;;10.30;89.10;;;;;;5045793;28;20036;-81
2021/12/09 08:23:51;;;;;;;2.60;1.50;;;10.20;90.30;;;;;;5046272;28;20052;-78
2021/12/09 08:26:19;;;;;;;3.45;2.10;;;10.20;90.30;;;;;;5046336;28;20122;-80
2021/12/09 08:28:45;;;;;;;4.32;2.20;;;10.20;90.30;;;;;;5046685;28;20017;-80
2021/12/09 08:31:11;;;;;;;2.75;1.73;;;10.10;91.70;;;;;;5044680;28;20240;-77
2021/12/09 08:33:36;;;;;;;2.90;2.03;;;10.00;92.00;;;;;;5038610;28;20079;-77
2021/12/09 08:36:03;;;;;;;4.55;2.20;;;9.90;92.40;;;;;;5046176;28;20027;-80
2021/12/09 08:38:29;;;;;;;4.63;2.17;;;9.80;92.70;;;;;;5044052;28;20041;-78
2021/12/09 08:40:55;;;;;;;5.78;2.70;;;9.60;93.80;;;;;;5041048;28;20028;-78
2021/12/09 08:43:22;;;;;;;22.25;12.25;;;9.50;94.80;;;;;;5040610;28;20028;-79
2021/12/09 08:45:49;;;;;;;33.58;12.73;;;9.30;95.50;;;;;;5040476;28;20032;-80
2021/12/09 08:48:16;;;;;;;14.98;6.97;;;9.10;96.60;;;;;;5039662;28;20094;-78
2021/12/09 08:50:44;;;;;;;22.05;10.70;;;8.90;97.00;;;;;;5039576;28;20092;-77
2021/12/09 08:53:16;;;;;;;31.20;15.95;;;8.80;97.20;;;;;;5040112;28;20045;-78
2021/12/09 08:55:43;;;;;;;24.17;12.23;;;8.70;98.10;;;;;;5038502;28;20556;-80
2021/12/09 08:58:10;;;;;;;27.67;11.35;;;8.60;98.60;;;;;;5040339;28;20045;-78
2021/12/09 09:00:37;;;;;;;14.77;6.70;;;8.50;99.10;;;;;;5042782;28;20064;-78
2021/12/09 09:03:03;;;;;;;12.85;5.93;;;8.40;99.30;;;;;;5044194;28;20060;-80
2021/12/09 09:05:30;;;;;;;7.93;3.75;;;8.40;99.50;;;;;;5044972;28;20028;-79
2021/12/09 09:07:56;;;;;;;8.45;4.22;;;8.30;99.70;;;;;;5045384;28;20009;-77
2021/12/09 09:10:25;;;;;;;5.97;3.17;;;8.30;99.90;;;;;;5026824;28;20037;-79
2021/12/09 09:12:51;;;;;;;7.32;3.35;;;8.30;99.70;;;;;;5045792;28;20044;-77
2021/12/09 09:15:19;;;;;;;5.68;3.10;;;8.20;99.50;;;;;;5048288;28;20088;-77
2021/12/09 09:17:45;;;;;;;4.57;2.60;;;8.20;99.80;;;;;;5033838;28;20048;-80
2021/12/09 09:20:14;;;;;;;8.15;3.40;;;8.20;99.50;;;;;;5044283;28;20033;-76
2021/12/09 09:22:40;;;;;;;7.13;3.33;;;8.10;99.80;;;;;;5046534;28;20652;-77
2021/12/09 09:25:10;;;;;;;8.73;4.93;;;8.10;99.80;;;;;;5045697;28;20699;-78
2021/12/09 09:27:37;;;;;;;111.32;54.20;;;8.10;99.90;;;;;;5045101;28;20027;-79
2021/12/09 09:30:06;;;;;;;11.85;6.07;;;8.10;99.90;;;;;;5028121;28;20103;-79
2021/12/09 09:32:32;;;;;;;3.22;1.90;;;8.20;99.40;;;;;;5042681;28;20036;-78
2021/12/09 09:34:58;;;;;;;59.42;29.35;;;8.10;98.50;;;;;;5023774;28;20033;-76
2021/12/09 09:37:24;;;;;;;13.30;6.88;;;8.10;99.30;;;;;;5042271;28;20660;-77
2021/12/09 09:39:50;;;;;;;16.40;8.65;;;8.00;99.30;;;;;;5023547;28;20731;-77
2021/12/09 09:45:19;;;;;;;9.27;4.65;;;8.00;99.60;;;;;;4980013;28;20040;-76
2021/12/09 09:47:45;;;;;;;9.93;4.97;;;7.90;99.50;;;;;;4963950;28;20121;-78
2021/12/09 09:50:11;;;;;;;10.05;4.82;;;7.90;99.80;;;;;;4980957;28;20066;-77
2021/12/09 09:52:38;;;;;;;5.95;2.70;;;7.80;99.90;;;;;;4979415;28;20101;-78
2021/12/09 09:55:08;;;;;;;13.57;6.90;;;7.70;99.90;;;;;;4979462;28;20030;-78
2021/12/09 09:57:34;;;;;;;11.30;5.88;;;7.60;99.90;;;;;;4979370;28;20613;-78
2021/12/09 10:00:01;;;;;;;16.05;7.47;;;7.60;99.90;;;;;;4980138;28;20121;-77
2021/12/09 10:02:26;;;;;;;9.15;4.70;;;7.50;99.90;;;;;;4981028;28;20046;-78
2021/12/09 10:05:01;;;;;;;7.90;3.95;;;7.50;99.90;;;;;;4981321;28;20018;-77
2021/12/09 10:07:28;;;;;;;10.13;4.78;;;7.40;99.90;;;;;;4981026;28;20026;-78
2021/12/09 10:09:54;;;;;;;91.40;36.45;;;7.40;99.90;;;;;;4979269;28;20054;-77
2021/12/09 10:12:20;;;;;;;46.35;19.48;;;7.40;99.90;;;;;;4979939;28;20022;-78
2021/12/09 10:14:51;;;;;;;73.28;32.83;;;7.30;99.90;;;;;;4979749;28;20038;-78
2021/12/09 10:17:19;;;;;;;173.27;69.90;;;7.30;99.90;;;;;;4962760;28;20030;-77
2021/12/09 10:19:51;;;;;;;140.68;57.83;;;7.30;99.90;;;;;;4979153;28;20065;-77
2021/12/09 10:22:20;;;;;;;174.00;72.95;;;7.20;99.90;;;;;;5040728;28;20507;-77
2021/12/09 10:24:48;;;;;;;93.70;43.45;;;7.20;99.90;;;;;;5022947;28;20622;-78
2021/12/09 10:27:22;;;;;;;46.83;23.50;;;7.20;99.90;;;;;;5040041;28;20121;-78
2021/12/09 10:29:48;;;;;;;29.67;16.52;;;7.20;99.90;;;;;;5023563;28;20017;-77
2021/12/09 10:32:27;;;;;;;23.85;13.30;;;7.20;99.90;;;;;;5040510;28;20738;-78
2021/12/09 10:34:52;;;;;;;20.20;12.35;;;7.20;99.90;;;;;;5023222;28;20033;-78
2021/12/09 10:37:21;;;;;;;20.13;10.75;;;7.20;99.90;;;;;;5040187;28;20025;-77
2021/12/09 10:39:55;;;;;;;21.27;12.15;;;7.20;99.90;;;;;;5040253;28;20041;-78
2021/12/09 10:42:23;;;;;;;15.27;9.38;;;7.20;99.90;;;;;;5040265;28;20029;-78
2021/12/09 10:44:57;;;;;;;59.80;30.92;;;7.30;99.90;;;;;;5040121;28;20024;-78
2021/12/09 10:47:48;;;;;;;126.90;62.88;;;7.30;99.90;;;;;;5040398;28;20640;-79
2021/12/09 10:55:49;;;;;;;17.13;9.90;;;7.30;99.90;;;;;;5039870;28;20025;-78
2021/12/09 10:58:17;;;;;;;21.88;11.00;;;7.30;99.90;;;;;;5040027;28;20017;-78
2021/12/09 11:00:43;;;;;;;15.80;8.57;;;7.30;99.90;;;;;;5039531;28;20056;-78
2021/12/09 11:03:11;;;;;;;14.95;8.60;;;7.30;99.90;;;;;;5040429;28;20612;-79
2021/12/09 11:05:44;;;;;;;37.28;19.33;;;7.30;99.90;;;;;;5040421;28;20241;-78
2021/12/09 11:08:20;;;;;;;42.38;23.75;;;7.30;99.90;;;;;;5039332;28;20575;-77
2021/12/09 11:10:48;;;;;;;40.28;18.67;;;7.30;99.90;;;;;;5039219;28;20672;-78
2021/12/09 11:13:17;;;;;;;28.58;15.70;;;7.40;99.90;;;;;;5039188;28;20048;-78
2021/12/09 11:15:45;;;;;;;58.63;29.08;;;7.40;99.90;;;;;;5039692;28;20047;-78
2021/12/09 11:18:35;;;;;;;40.80;20.95;;;7.40;99.90;;;;;;5040841;28;20700;-78
2021/12/09 11:21:24;;;;;;;85.97;37.42;;;7.40;99.90;;;;;;5024761;28;20045;-79
2021/12/09 11:23:56;;;;;;;114.05;46.25;;;7.40;99.90;;;;;;5040025;28;20013;-79
2021/12/09 11:26:36;;;;;;;78.68;34.20;;;7.30;99.90;;;;;;5038826;28;20029;-79
2021/12/09 11:29:17;;;;;;;49.97;25.17;;;7.30;99.90;;;;;;5040336;28;20052;-79
2021/12/09 11:32:16;;;;;;;60.80;34.13;;;7.30;99.90;;;;;;5039691;28;20190;-78
2021/12/09 11:34:53;;;;;;;34.92;18.20;;;7.30;99.90;;;;;;5021936;28;20127;-78
2021/12/09 11:39:56;;;;;;;16.50;9.98;;;7.60;99.90;;;;;;5038746;28;20015;-80
2021/12/09 11:42:32;;;;;;;15.13;8.13;;;7.70;99.90;;;;;;5022704;28;20049;-79
2021/12/09 11:44:58;;;;;;;19.58;8.77;;;9.50;99.90;;;;;;5039398;28;20013;-78
2021/12/09 11:47:24;;;;;;;13.73;8.23;;;6.50;99.40;;;;;;5039359;28;20715;-79
2021/12/09 11:49:51;;;;;;;12.45;7.93;;;7.90;99.40;;;;;;5040178;28;20764;-80
2021/12/09 11:52:20;;;;;;;16.05;7.60;;;7.90;99.40;;;;;;5039537;28;20301;-79
2021/12/09 11:55:05;;;;;;;16.17;8.25;;;7.90;99.40;;;;;;5039617;28;20028;-80
2021/12/09 11:57:49;;;;;;;16.00;8.82;;;8.00;99.00;;;;;;5039270;28;20076;-79
2021/12/09 12:14:58;;;;;;;;;;;7.90;99.90;;;;;;5039975;28;20116;-80
2021/12/09 12:17:31;;;;;;;74.22;39.58;;;7.80;99.90;;;;;;5039078;28;19935;-80
2021/12/09 12:20:36;;;;;;;42.45;23.52;;;7.80;99.90;;;;;;5038711;28;20025;-80
2021/12/09 12:23:17;;;;;;;40.25;23.90;;;7.60;99.90;;;;;;5038536;28;20744;-80
2021/12/09 12:28:56;;;;;;;63.15;32.65;;;7.50;99.90;;;;;;5039071;28;20056;-79
2021/12/09 12:40:34;;;;;;;42.35;22.30;;;7.10;99.90;;;;;;5043420;28;20079;-80
2021/12/09 12:43:07;;;;;;;35.22;17.50;;;7.10;99.90;;;;;;5042538;28;20211;-80
2021/12/09 12:46:01;;;;;;;25.98;13.30;;;7.10;99.90;;;;;;5025389;28;20706;-79
2021/12/09 12:51:23;;;;;;;13.80;7.40;;;7.00;99.90;;;;;;5043347;28;20664;-77
2021/12/09 12:53:56;;;;;;;23.15;12.95;;;7.00;99.90;;;;;;5026680;28;20021;-80
2021/12/09 12:56:39;;;;;;;25.48;13.95;;;7.00;99.90;;;;;;5045816;28;20108;-79
2021/12/09 12:59:13;;;;;;;18.73;10.80;;;7.00;99.90;;;;;;5046280;28;20059;-80
2021/12/09 13:02:46;;;;;;;16.30;9.43;;;6.90;99.90;;;;;;5029645;28;20032;-79
2021/12/09 13:05:28;;;;;;;33.58;14.63;;;6.90;99.90;;;;;;5045163;28;20269;-78
2021/12/09 13:10:45;;;;;;;29.33;15.85;;;7.00;99.90;;;;;;5047866;28;20633;-80
2021/12/09 13:13:20;;;;;;;30.65;15.55;;;7.00;99.90;;;;;;5043247;28;20025;-78
2021/12/09 13:16:10;;;;;;;27.98;15.68;;;7.00;99.90;;;;;;5047569;28;20013;-77
2021/12/09 13:18:43;;;;;;;28.75;15.50;;;6.90;99.90;;;;;;5046902;28;20550;-77
2021/12/09 13:21:37;;;;;;;34.03;17.40;;;6.90;99.90;;;;;;5050225;28;20028;-77
2021/12/09 13:24:24;;;;;;;1078.78;501.73;;;6.90;99.90;;;;;;4970018;28;20062;-78
2021/12/09 13:27:03;;;;;;;469.48;185.25;;;7.00;99.90;;;;;;4963674;28;20027;-80
2021/12/09 13:35:16;;;;;;;233.35;83.63;;;7.00;99.90;;;;;;4886979;29;20127;-80
2021/12/09 13:46:35;;;;;;;531.90;190.07;;;6.90;99.90;;;;;;4885066;29;20786;-80
2021/12/09 13:49:21;;;;;;;289.50;105.10;;;6.90;99.90;;;;;;4885516;29;20123;-80
2021/12/09 13:56:46;;;;;;;191.38;75.10;;;6.90;99.90;;;;;;4884150;29;20041;-80